sensor_id;sensor_type;location;lat;lon;timestamp;P1;durP1;ratioP1;P2;durP2;ratioP2
16813;SDS011;8524;57.650;11.926;2022-08-01T00:01:49;5.67;;;5.17;;
16813;SDS011;8524;57.650;11.926;2022-08-01T00:04:16;4.40;;;4.00;;
16813;SDS011;8524;57.650;11.926;2022-08-01T00:06:45;6.20;;;5.60;;
16813;SDS011;8524;57.650;11.926;2022-08-01T00:09:12;6.82;;;6.22;;
16813;SDS011;8524;57.650;11.926;2022-08-01T00:11:38;5.73;;;5.20;;
16813;SDS011;8524;57.650;11.926;2022-08-01T00:14:06;7.77;;;7.10;;
16813;SDS011;8524;57.650;11.926;2022-08-01T00:16:35;8.27;;;6.00;;
16813;SDS011;8524;57.650;11.926;2022-08-01T00:19:02;7.90;;;7.10;;
16813;SDS011;8524;57.650;11.926;2022-08-01T00:21:29;6.07;;;5.57;;
16813;SDS011;8524;57.650;11.926;2022-08-01T00:23:57;7.03;;;6.30;;
16813;SDS011;8524;57.650;11.926;2022-08-01T00:26:25;5.40;;;4.93;;
16813;SDS011;8524;57.650;11.926;2022-08-01T00:28:52;6.13;;;5.53;;
16813;SDS011;8524;57.650;11.926;2022-08-01T00:31:19;6.13;;;5.63;;
16813;SDS011;8524;57.650;11.926;2022-08-01T00:33:46;5.50;;;5.10;;
16813;SDS011;8524;57.650;11.926;2022-08-01T00:36:12;5.80;;;5.30;;
16813;SDS011;8524;57.650;11.926;2022-08-01T00:38:39;6.57;;;6.03;;
16813;SDS011;8524;57.650;11.926;2022-08-01T00:41:08;7.27;;;6.53;;
16813;SDS011;8524;57.650;11.926;2022-08-01T00:43:35;6.50;;;5.90;;
16813;SDS011;8524;57.650;11.926;2022-08-01T00:46:01;7.10;;;6.50;;
16813;SDS011;8524;57.650;11.926;2022-08-01T00:48:29;5.80;;;5.30;;
16813;SDS011;8524;57.650;11.926;2022-08-01T00:50:55;5.70;;;5.20;;
16813;SDS011;8524;57.650;11.926;2022-08-01T00:53:23;6.97;;;6.37;;
16813;SDS011;8524;57.650;11.926;2022-08-01T00:55:50;7.40;;;6.80;;
16813;SDS011;8524;57.650;11.926;2022-08-01T00:58:18;5.97;;;5.47;;
16813;SDS011;8524;57.650;11.926;2022-08-01T01:00:46;6.33;;;5.73;;
16813;SDS011;8524;57.650;11.926;2022-08-01T01:03:13;7.50;;;6.03;;
16813;SDS011;8524;57.650;11.926;2022-08-01T01:05:43;7.70;;;7.00;;
16813;SDS011;8524;57.650;11.926;2022-08-01T01:08:22;6.90;;;6.40;;
16813;SDS011;8524;57.650;11.926;2022-08-01T01:10:57;6.67;;;6.17;;
16813;SDS011;8524;57.650;11.926;2022-08-01T01:13:32;7.73;;;6.53;;
16813;SDS011;8524;57.650;11.926;2022-08-01T01:16:04;7.60;;;6.90;;
16813;SDS011;8524;57.650;11.926;2022-08-01T01:18:35;7.20;;;6.50;;
16813;SDS011;8524;57.650;11.926;2022-08-01T01:21:13;8.03;;;7.33;;
16813;SDS011;8524;57.650;11.926;2022-08-01T01:24:03;7.43;;;6.80;;
16813;SDS011;8524;57.650;11.926;2022-08-01T01:26:43;8.13;;;7.43;;
16813;SDS011;8524;57.650;11.926;2022-08-01T01:29:21;7.93;;;7.27;;
16813;SDS011;8524;57.650;11.926;2022-08-01T01:31:53;7.33;;;6.70;;
16813;SDS011;8524;57.650;11.926;2022-08-01T01:34:25;5.90;;;5.30;;
16813;SDS011;8524;57.650;11.926;2022-08-01T01:36:55;7.27;;;6.57;;
16813;SDS011;8524;57.650;11.926;2022-08-01T01:39:25;7.43;;;6.33;;
16813;SDS011;8524;57.650;11.926;2022-08-01T01:41:56;8.13;;;7.53;;
16813;SDS011;8524;57.650;11.926;2022-08-01T01:44:26;6.83;;;6.20;;
16813;SDS011;8524;57.650;11.926;2022-08-01T01:46:54;7.03;;;6.43;;
16813;SDS011;8524;57.650;11.926;2022-08-01T01:49:24;7.00;;;6.40;;
16813;SDS011;8524;57.650;11.926;2022-08-01T01:51:53;6.03;;;5.43;;
16813;SDS011;8524;57.650;11.926;2022-08-01T01:54:22;6.60;;;5.90;;
16813;SDS011;8524;57.650;11.926;2022-08-01T01:56:54;7.03;;;6.43;;
16813;SDS011;8524;57.650;11.926;2022-08-01T01:59:24;7.37;;;6.67;;
16813;SDS011;8524;57.650;11.926;2022-08-01T02:01:55;7.07;;;6.37;;
16813;SDS011;8524;57.650;11.926;2022-08-01T02:04:25;7.10;;;6.47;;
16813;SDS011;8524;57.650;11.926;2022-08-01T02:06:54;7.07;;;6.47;;
16813;SDS011;8524;57.650;11.926;2022-08-01T02:09:21;6.87;;;6.13;;
16813;SDS011;8524;57.650;11.926;2022-08-01T02:11:52;8.17;;;6.57;;
16813;SDS011;8524;57.650;11.926;2022-08-01T02:14:20;7.27;;;6.67;;
16813;SDS011;8524;57.650;11.926;2022-08-01T02:16:51;6.10;;;5.57;;
16813;SDS011;8524;57.650;11.926;2022-08-01T02:19:18;7.50;;;6.80;;
16813;SDS011;8524;57.650;11.926;2022-08-01T02:21:46;7.93;;;7.13;;
16813;SDS011;8524;57.650;11.926;2022-08-01T02:24:19;7.00;;;6.40;;
16813;SDS011;8524;57.650;11.926;2022-08-01T02:26:50;7.30;;;6.60;;
16813;SDS011;8524;57.650;11.926;2022-08-01T02:29:21;7.30;;;6.60;;
16813;SDS011;8524;57.650;11.926;2022-08-01T02:31:54;8.70;;;7.57;;
16813;SDS011;8524;57.650;11.926;2022-08-01T02:34:21;7.90;;;7.13;;
16813;SDS011;8524;57.650;11.926;2022-08-01T02:36:50;8.77;;;7.95;;
16813;SDS011;8524;57.650;11.926;2022-08-01T02:39:19;8.63;;;7.03;;
16813;SDS011;8524;57.650;11.926;2022-08-01T02:41:49;7.73;;;6.90;;
16813;SDS011;8524;57.650;11.926;2022-08-01T02:44:23;7.73;;;6.60;;
16813;SDS011;8524;57.650;11.926;2022-08-01T02:46:56;7.40;;;6.67;;
16813;SDS011;8524;57.650;11.926;2022-08-01T02:49:27;8.07;;;7.30;;
16813;SDS011;8524;57.650;11.926;2022-08-01T02:51:57;6.97;;;6.43;;
16813;SDS011;8524;57.650;11.926;2022-08-01T02:54:27;8.60;;;7.80;;
16813;SDS011;8524;57.650;11.926;2022-08-01T02:56:57;7.27;;;6.37;;
16813;SDS011;8524;57.650;11.926;2022-08-01T02:59:26;5.97;;;5.40;;
16813;SDS011;8524;57.650;11.926;2022-08-01T03:01:56;7.90;;;7.20;;
16813;SDS011;8524;57.650;11.926;2022-08-01T03:04:25;8.73;;;7.83;;
16813;SDS011;8524;57.650;11.926;2022-08-01T03:06:54;7.50;;;6.80;;
16813;SDS011;8524;57.650;11.926;2022-08-01T03:09:23;7.73;;;7.03;;
16813;SDS011;8524;57.650;11.926;2022-08-01T03:11:53;8.63;;;7.93;;
16813;SDS011;8524;57.650;11.926;2022-08-01T03:14:23;9.10;;;8.20;;
16813;SDS011;8524;57.650;11.926;2022-08-01T03:16:51;7.53;;;6.83;;
16813;SDS011;8524;57.650;11.926;2022-08-01T03:19:20;8.33;;;7.63;;
16813;SDS011;8524;57.650;11.926;2022-08-01T03:21:51;9.80;;;8.87;;
16813;SDS011;8524;57.650;11.926;2022-08-01T03:24:19;9.50;;;8.30;;
16813;SDS011;8524;57.650;11.926;2022-08-01T03:26:49;9.00;;;8.20;;
16813;SDS011;8524;57.650;11.926;2022-08-01T03:29:21;9.73;;;8.93;;
16813;SDS011;8524;57.650;11.926;2022-08-01T03:31:52;10.07;;;9.07;;
16813;SDS011;8524;57.650;11.926;2022-08-01T03:34:21;10.60;;;9.70;;
16813;SDS011;8524;57.650;11.926;2022-08-01T03:36:49;11.70;;;10.67;;
16813;SDS011;8524;57.650;11.926;2022-08-01T03:39:20;11.43;;;10.43;;
16813;SDS011;8524;57.650;11.926;2022-08-01T03:41:51;12.23;;;11.23;;
16813;SDS011;8524;57.650;11.926;2022-08-01T03:44:23;11.43;;;10.33;;
16813;SDS011;8524;57.650;11.926;2022-08-01T03:46:54;10.33;;;9.33;;
16813;SDS011;8524;57.650;11.926;2022-08-01T03:49:27;10.07;;;9.07;;
16813;SDS011;8524;57.650;11.926;2022-08-01T03:51:57;11.10;;;10.20;;
16813;SDS011;8524;57.650;11.926;2022-08-01T03:54:28;9.33;;;8.53;;
16813;SDS011;8524;57.650;11.926;2022-08-01T03:56:58;8.40;;;7.57;;
16813;SDS011;8524;57.650;11.926;2022-08-01T03:59:26;11.18;;;10.30;;
16813;SDS011;8524;57.650;11.926;2022-08-01T04:01:55;9.10;;;8.30;;
16813;SDS011;8524;57.650;11.926;2022-08-01T04:04:22;8.43;;;7.73;;
16813;SDS011;8524;57.650;11.926;2022-08-01T04:06:51;7.53;;;6.80;;
16813;SDS011;8524;57.650;11.926;2022-08-01T04:09:19;6.47;;;5.87;;
16813;SDS011;8524;57.650;11.926;2022-08-01T04:11:46;7.83;;;6.17;;
16813;SDS011;8524;57.650;11.926;2022-08-01T04:14:14;6.80;;;6.10;;
16813;SDS011;8524;57.650;11.926;2022-08-01T04:16:41;7.15;;;6.55;;
16813;SDS011;8524;57.650;11.926;2022-08-01T04:19:08;6.10;;;5.60;;
16813;SDS011;8524;57.650;11.926;2022-08-01T04:21:35;5.63;;;5.13;;
16813;SDS011;8524;57.650;11.926;2022-08-01T04:24:05;6.27;;;5.43;;
16813;SDS011;8524;57.650;11.926;2022-08-01T04:26:35;4.83;;;4.40;;
16813;SDS011;8524;57.650;11.926;2022-08-01T04:29:03;5.93;;;5.30;;
16813;SDS011;8524;57.650;11.926;2022-08-01T04:31:32;5.60;;;5.10;;
16813;SDS011;8524;57.650;11.926;2022-08-01T04:34:01;6.53;;;5.17;;
16813;SDS011;8524;57.650;11.926;2022-08-01T04:36:30;4.53;;;4.10;;
16813;SDS011;8524;57.650;11.926;2022-08-01T04:39:02;4.07;;;3.73;;
16813;SDS011;8524;57.650;11.926;2022-08-01T04:41:32;3.63;;;3.33;;
16813;SDS011;8524;57.650;11.926;2022-08-01T04:44:00;5.93;;;4.00;;
16813;SDS011;8524;57.650;11.926;2022-08-01T04:46:29;4.40;;;3.63;;
16813;SDS011;8524;57.650;11.926;2022-08-01T04:48:57;5.10;;;3.43;;
16813;SDS011;8524;57.650;11.926;2022-08-01T04:51:25;3.10;;;2.80;;
16813;SDS011;8524;57.650;11.926;2022-08-01T04:53:52;2.80;;;2.63;;
16813;SDS011;8524;57.650;11.926;2022-08-01T04:56:21;3.13;;;2.90;;
16813;SDS011;8524;57.650;11.926;2022-08-01T04:58:48;5.70;;;2.87;;
16813;SDS011;8524;57.650;11.926;2022-08-01T05:01:34;3.50;;;2.40;;
16813;SDS011;8524;57.650;11.926;2022-08-01T05:04:01;2.70;;;2.50;;
16813;SDS011;8524;57.650;11.926;2022-08-01T05:06:28;2.40;;;2.20;;
16813;SDS011;8524;57.650;11.926;2022-08-01T05:08:55;2.70;;;2.50;;
16813;SDS011;8524;57.650;11.926;2022-08-01T05:11:24;3.63;;;2.77;;
16813;SDS011;8524;57.650;11.926;2022-08-01T05:13:50;3.40;;;3.10;;
16813;SDS011;8524;57.650;11.926;2022-08-01T05:16:17;3.10;;;2.80;;
16813;SDS011;8524;57.650;11.926;2022-08-01T05:18:44;4.37;;;3.13;;
16813;SDS011;8524;57.650;11.926;2022-08-01T05:21:11;2.90;;;2.60;;
16813;SDS011;8524;57.650;11.926;2022-08-01T05:23:38;3.70;;;2.80;;
16813;SDS011;8524;57.650;11.926;2022-08-01T05:26:05;4.63;;;4.23;;
16813;SDS011;8524;57.650;11.926;2022-08-01T05:28:34;6.17;;;4.10;;
16813;SDS011;8524;57.650;11.926;2022-08-01T05:31:01;4.07;;;3.40;;
16813;SDS011;8524;57.650;11.926;2022-08-01T05:33:28;3.30;;;3.10;;
16813;SDS011;8524;57.650;11.926;2022-08-01T05:35:55;3.30;;;2.60;;
16813;SDS011;8524;57.650;11.926;2022-08-01T05:38:22;3.27;;;2.67;;
16813;SDS011;8524;57.650;11.926;2022-08-01T05:40:49;2.73;;;2.50;;
16813;SDS011;8524;57.650;11.926;2022-08-01T05:43:16;2.93;;;2.73;;
16813;SDS011;8524;57.650;11.926;2022-08-01T05:45:44;2.20;;;2.00;;
16813;SDS011;8524;57.650;11.926;2022-08-01T05:48:12;2.10;;;2.00;;
16813;SDS011;8524;57.650;11.926;2022-08-01T05:50:39;2.30;;;2.10;;
16813;SDS011;8524;57.650;11.926;2022-08-01T05:53:06;2.67;;;2.20;;
16813;SDS011;8524;57.650;11.926;2022-08-01T05:55:32;2.50;;;2.10;;
16813;SDS011;8524;57.650;11.926;2022-08-01T05:58:00;2.20;;;2.00;;
16813;SDS011;8524;57.650;11.926;2022-08-01T06:00:28;2.13;;;1.70;;
16813;SDS011;8524;57.650;11.926;2022-08-01T06:02:56;2.07;;;1.70;;
16813;SDS011;8524;57.650;11.926;2022-08-01T06:05:23;2.03;;;1.77;;
16813;SDS011;8524;57.650;11.926;2022-08-01T06:07:50;2.20;;;1.80;;
16813;SDS011;8524;57.650;11.926;2022-08-01T06:10:17;1.93;;;1.50;;
16813;SDS011;8524;57.650;11.926;2022-08-01T06:12:44;1.60;;;1.50;;
16813;SDS011;8524;57.650;11.926;2022-08-01T06:15:11;3.80;;;1.80;;
16813;SDS011;8524;57.650;11.926;2022-08-01T06:17:38;4.13;;;2.00;;
16813;SDS011;8524;57.650;11.926;2022-08-01T06:20:08;2.83;;;1.90;;
16813;SDS011;8524;57.650;11.926;2022-08-01T06:22:36;1.60;;;1.50;;
16813;SDS011;8524;57.650;11.926;2022-08-01T06:25:03;3.00;;;1.63;;
16813;SDS011;8524;57.650;11.926;2022-08-01T06:27:34;5.10;;;2.00;;
16813;SDS011;8524;57.650;11.926;2022-08-01T06:30:01;2.43;;;2.23;;
16813;SDS011;8524;57.650;11.926;2022-08-01T06:32:29;4.20;;;2.00;;
16813;SDS011;8524;57.650;11.926;2022-08-01T06:34:56;3.20;;;1.87;;
16813;SDS011;8524;57.650;11.926;2022-08-01T06:37:27;4.53;;;2.10;;
16813;SDS011;8524;57.650;11.926;2022-08-01T06:39:55;3.60;;;2.03;;
16813;SDS011;8524;57.650;11.926;2022-08-01T06:42:22;3.83;;;2.40;;
16813;SDS011;8524;57.650;11.926;2022-08-01T06:44:50;3.33;;;2.17;;
16813;SDS011;8524;57.650;11.926;2022-08-01T06:47:16;4.27;;;2.17;;
16813;SDS011;8524;57.650;11.926;2022-08-01T06:49:43;3.37;;;1.70;;
16813;SDS011;8524;57.650;11.926;2022-08-01T06:52:10;3.93;;;2.07;;
16813;SDS011;8524;57.650;11.926;2022-08-01T06:54:39;5.10;;;2.37;;
16813;SDS011;8524;57.650;11.926;2022-08-01T06:57:06;4.00;;;1.90;;
16813;SDS011;8524;57.650;11.926;2022-08-01T06:59:33;5.37;;;2.37;;
16813;SDS011;8524;57.650;11.926;2022-08-01T07:02:00;4.00;;;1.97;;
16813;SDS011;8524;57.650;11.926;2022-08-01T07:04:27;4.33;;;2.00;;
16813;SDS011;8524;57.650;11.926;2022-08-01T07:06:54;3.23;;;1.93;;
16813;SDS011;8524;57.650;11.926;2022-08-01T07:09:21;4.53;;;2.00;;
16813;SDS011;8524;57.650;11.926;2022-08-01T07:11:49;5.40;;;2.20;;
16813;SDS011;8524;57.650;11.926;2022-08-01T07:14:17;5.73;;;2.63;;
16813;SDS011;8524;57.650;11.926;2022-08-01T07:16:44;4.23;;;2.27;;
16813;SDS011;8524;57.650;11.926;2022-08-01T07:19:11;5.87;;;2.07;;
16813;SDS011;8524;57.650;11.926;2022-08-01T07:21:39;4.13;;;1.90;;
16813;SDS011;8524;57.650;11.926;2022-08-01T07:24:06;5.77;;;2.30;;
16813;SDS011;8524;57.650;11.926;2022-08-01T07:26:34;5.10;;;2.20;;
16813;SDS011;8524;57.650;11.926;2022-08-01T07:29:02;7.13;;;2.57;;
16813;SDS011;8524;57.650;11.926;2022-08-01T07:31:29;4.80;;;2.43;;
16813;SDS011;8524;57.650;11.926;2022-08-01T07:33:56;4.50;;;1.97;;
16813;SDS011;8524;57.650;11.926;2022-08-01T07:36:23;6.27;;;2.30;;
16813;SDS011;8524;57.650;11.926;2022-08-01T07:38:50;6.00;;;2.30;;
16813;SDS011;8524;57.650;11.926;2022-08-01T07:41:17;4.77;;;1.90;;
16813;SDS011;8524;57.650;11.926;2022-08-01T07:43:44;6.80;;;2.20;;
16813;SDS011;8524;57.650;11.926;2022-08-01T07:46:14;6.30;;;2.20;;
16813;SDS011;8524;57.650;11.926;2022-08-01T07:48:41;6.27;;;2.03;;
16813;SDS011;8524;57.650;11.926;2022-08-01T07:51:08;5.20;;;2.10;;
16813;SDS011;8524;57.650;11.926;2022-08-01T07:53:35;3.70;;;2.40;;
16813;SDS011;8524;57.650;11.926;2022-08-01T07:56:02;4.77;;;1.93;;
16813;SDS011;8524;57.650;11.926;2022-08-01T07:58:30;3.43;;;1.90;;
16813;SDS011;8524;57.650;11.926;2022-08-01T08:00:57;4.57;;;1.93;;
16813;SDS011;8524;57.650;11.926;2022-08-01T08:03:26;3.60;;;1.90;;
16813;SDS011;8524;57.650;11.926;2022-08-01T08:05:53;3.53;;;1.70;;
16813;SDS011;8524;57.650;11.926;2022-08-01T08:08:20;3.20;;;1.70;;
16813;SDS011;8524;57.650;11.926;2022-08-01T08:10:47;6.05;;;1.95;;
16813;SDS011;8524;57.650;11.926;2022-08-01T08:13:14;4.00;;;1.83;;
16813;SDS011;8524;57.650;11.926;2022-08-01T08:15:40;3.53;;;1.63;;
16813;SDS011;8524;57.650;11.926;2022-08-01T08:18:08;2.73;;;1.90;;
16813;SDS011;8524;57.650;11.926;2022-08-01T08:20:36;4.13;;;1.90;;
16813;SDS011;8524;57.650;11.926;2022-08-01T08:23:03;4.03;;;1.80;;
16813;SDS011;8524;57.650;11.926;2022-08-01T08:25:50;4.00;;;1.70;;
16813;SDS011;8524;57.650;11.926;2022-08-01T08:28:17;4.45;;;1.80;;
16813;SDS011;8524;57.650;11.926;2022-08-01T08:30:44;3.13;;;1.90;;
16813;SDS011;8524;57.650;11.926;2022-08-01T08:33:11;5.47;;;1.90;;
16813;SDS011;8524;57.650;11.926;2022-08-01T08:35:40;5.97;;;2.20;;
16813;SDS011;8524;57.650;11.926;2022-08-01T08:38:07;5.43;;;1.80;;
16813;SDS011;8524;57.650;11.926;2022-08-01T08:40:34;4.13;;;1.70;;
16813;SDS011;8524;57.650;11.926;2022-08-01T08:43:03;5.80;;;2.07;;
16813;SDS011;8524;57.650;11.926;2022-08-01T08:45:31;5.13;;;2.10;;
16813;SDS011;8524;57.650;11.926;2022-08-01T08:47:58;3.63;;;2.07;;
16813;SDS011;8524;57.650;11.926;2022-08-01T08:50:25;6.00;;;2.03;;
16813;SDS011;8524;57.650;11.926;2022-08-01T08:52:55;4.43;;;1.60;;
16813;SDS011;8524;57.650;11.926;2022-08-01T08:55:22;5.72;;;2.45;;
16813;SDS011;8524;57.650;11.926;2022-08-01T08:57:50;5.57;;;2.30;;
16813;SDS011;8524;57.650;11.926;2022-08-01T09:00:18;6.87;;;2.30;;
16813;SDS011;8524;57.650;11.926;2022-08-01T09:02:46;7.07;;;2.13;;
16813;SDS011;8524;57.650;11.926;2022-08-01T09:05:15;6.00;;;2.20;;
16813;SDS011;8524;57.650;11.926;2022-08-01T09:07:50;6.17;;;2.20;;
16813;SDS011;8524;57.650;11.926;2022-08-01T09:10:18;6.17;;;2.60;;
16813;SDS011;8524;57.650;11.926;2022-08-01T09:13:05;7.03;;;2.20;;
16813;SDS011;8524;57.650;11.926;2022-08-01T09:15:39;4.60;;;2.00;;
16813;SDS011;8524;57.650;11.926;2022-08-01T09:18:08;4.33;;;1.70;;
16813;SDS011;8524;57.650;11.926;2022-08-01T09:20:51;5.67;;;2.20;;
16813;SDS011;8524;57.650;11.926;2022-08-01T09:23:33;5.50;;;2.13;;
16813;SDS011;8524;57.650;11.926;2022-08-01T09:26:05;4.87;;;2.10;;
16813;SDS011;8524;57.650;11.926;2022-08-01T09:28:32;4.40;;;2.20;;
16813;SDS011;8524;57.650;11.926;2022-08-01T09:30:59;4.33;;;2.30;;
16813;SDS011;8524;57.650;11.926;2022-08-01T09:33:46;6.33;;;2.40;;
16813;SDS011;8524;57.650;11.926;2022-08-01T09:36:17;6.87;;;2.00;;
16813;SDS011;8524;57.650;11.926;2022-08-01T09:38:45;3.80;;;1.90;;
16813;SDS011;8524;57.650;11.926;2022-08-01T09:41:13;4.87;;;1.90;;
16813;SDS011;8524;57.650;11.926;2022-08-01T09:43:40;5.80;;;2.40;;
16813;SDS011;8524;57.650;11.926;2022-08-01T09:46:15;6.72;;;2.70;;
16813;SDS011;8524;57.650;11.926;2022-08-01T09:51:29;4.00;;;2.17;;
16813;SDS011;8524;57.650;11.926;2022-08-01T09:53:58;4.20;;;2.20;;
16813;SDS011;8524;57.650;11.926;2022-08-01T09:56:27;5.73;;;2.30;;
16813;SDS011;8524;57.650;11.926;2022-08-01T09:59:03;6.43;;;2.50;;
16813;SDS011;8524;57.650;11.926;2022-08-01T10:01:41;5.53;;;2.23;;
16813;SDS011;8524;57.650;11.926;2022-08-01T10:04:10;7.20;;;2.57;;
16813;SDS011;8524;57.650;11.926;2022-08-01T10:06:38;7.00;;;2.30;;
16813;SDS011;8524;57.650;11.926;2022-08-01T10:09:07;5.87;;;2.77;;
16813;SDS011;8524;57.650;11.926;2022-08-01T10:11:36;6.23;;;2.07;;
16813;SDS011;8524;57.650;11.926;2022-08-01T10:14:04;5.47;;;2.20;;
16813;SDS011;8524;57.650;11.926;2022-08-01T10:16:32;6.70;;;2.13;;
16813;SDS011;8524;57.650;11.926;2022-08-01T10:19:01;4.88;;;2.00;;
16813;SDS011;8524;57.650;11.926;2022-08-01T10:21:28;6.67;;;2.00;;
16813;SDS011;8524;57.650;11.926;2022-08-01T10:23:59;6.30;;;1.90;;
16813;SDS011;8524;57.650;11.926;2022-08-01T10:26:28;5.43;;;2.20;;
16813;SDS011;8524;57.650;11.926;2022-08-01T10:28:59;4.93;;;2.00;;
16813;SDS011;8524;57.650;11.926;2022-08-01T10:31:28;6.27;;;2.23;;
16813;SDS011;8524;57.650;11.926;2022-08-01T10:33:58;2.90;;;2.07;;
16813;SDS011;8524;57.650;11.926;2022-08-01T10:36:26;3.33;;;1.60;;
16813;SDS011;8524;57.650;11.926;2022-08-01T10:38:54;4.13;;;2.00;;
16813;SDS011;8524;57.650;11.926;2022-08-01T10:41:21;4.33;;;1.53;;
16813;SDS011;8524;57.650;11.926;2022-08-01T10:43:50;3.73;;;1.70;;
16813;SDS011;8524;57.650;11.926;2022-08-01T10:46:19;3.30;;;1.30;;
16813;SDS011;8524;57.650;11.926;2022-08-01T10:48:51;5.60;;;1.80;;
16813;SDS011;8524;57.650;11.926;2022-08-01T10:51:24;4.67;;;1.50;;
16813;SDS011;8524;57.650;11.926;2022-08-01T10:53:53;2.37;;;1.50;;
16813;SDS011;8524;57.650;11.926;2022-08-01T10:56:22;3.77;;;1.40;;
16813;SDS011;8524;57.650;11.926;2022-08-01T10:58:51;2.37;;;1.47;;
16813;SDS011;8524;57.650;11.926;2022-08-01T11:01:29;3.33;;;1.43;;
16813;SDS011;8524;57.650;11.926;2022-08-01T11:04:07;3.43;;;1.53;;
16813;SDS011;8524;57.650;11.926;2022-08-01T11:09:29;5.03;;;1.73;;
16813;SDS011;8524;57.650;11.926;2022-08-01T11:12:05;4.03;;;1.40;;
16813;SDS011;8524;57.650;11.926;2022-08-01T11:15:15;2.67;;;1.33;;
16813;SDS011;8524;57.650;11.926;2022-08-01T11:17:52;3.37;;;1.80;;
16813;SDS011;8524;57.650;11.926;2022-08-01T11:20:21;3.43;;;1.60;;
16813;SDS011;8524;57.650;11.926;2022-08-01T11:26:07;4.77;;;1.50;;
16813;SDS011;8524;57.650;11.926;2022-08-01T11:28:42;2.42;;;1.60;;
16813;SDS011;8524;57.650;11.926;2022-08-01T11:31:26;1.50;;;1.40;;
16813;SDS011;8524;57.650;11.926;2022-08-01T11:33:59;3.03;;;1.50;;
16813;SDS011;8524;57.650;11.926;2022-08-01T11:36:26;3.67;;;1.60;;
16813;SDS011;8524;57.650;11.926;2022-08-01T11:39:12;3.87;;;1.40;;
16813;SDS011;8524;57.650;11.926;2022-08-01T11:41:41;4.57;;;1.80;;
16813;SDS011;8524;57.650;11.926;2022-08-01T11:44:09;3.20;;;1.40;;
16813;SDS011;8524;57.650;11.926;2022-08-01T11:46:45;3.47;;;1.87;;
16813;SDS011;8524;57.650;11.926;2022-08-01T11:49:25;4.10;;;1.63;;
16813;SDS011;8524;57.650;11.926;2022-08-01T11:51:57;4.60;;;2.00;;
16813;SDS011;8524;57.650;11.926;2022-08-01T11:54:26;3.50;;;1.67;;
16813;SDS011;8524;57.650;11.926;2022-08-01T11:56:57;3.60;;;1.60;;
16813;SDS011;8524;57.650;11.926;2022-08-01T11:59:25;2.47;;;1.23;;
16813;SDS011;8524;57.650;11.926;2022-08-01T12:01:53;2.53;;;1.50;;
16813;SDS011;8524;57.650;11.926;2022-08-01T12:04:20;3.50;;;1.60;;
16813;SDS011;8524;57.650;11.926;2022-08-01T12:06:48;5.37;;;1.93;;
16813;SDS011;8524;57.650;11.926;2022-08-01T12:09:16;3.37;;;1.63;;
16813;SDS011;8524;57.650;11.926;2022-08-01T12:11:44;2.83;;;1.60;;
16813;SDS011;8524;57.650;11.926;2022-08-01T12:14:15;5.50;;;1.70;;
16813;SDS011;8524;57.650;11.926;2022-08-01T12:16:53;5.00;;;1.80;;
16813;SDS011;8524;57.650;11.926;2022-08-01T12:19:21;5.00;;;1.60;;
16813;SDS011;8524;57.650;11.926;2022-08-01T12:22:06;3.90;;;1.60;;
16813;SDS011;8524;57.650;11.926;2022-08-01T12:24:34;4.05;;;1.85;;
16813;SDS011;8524;57.650;11.926;2022-08-01T12:27:01;3.07;;;1.50;;
16813;SDS011;8524;57.650;11.926;2022-08-01T12:29:32;3.73;;;1.80;;
16813;SDS011;8524;57.650;11.926;2022-08-01T12:32:01;3.67;;;1.63;;
16813;SDS011;8524;57.650;11.926;2022-08-01T12:34:28;3.80;;;1.50;;
16813;SDS011;8524;57.650;11.926;2022-08-01T12:36:59;4.83;;;1.73;;
16813;SDS011;8524;57.650;11.926;2022-08-01T12:39:32;2.63;;;1.40;;
16813;SDS011;8524;57.650;11.926;2022-08-01T12:42:00;3.07;;;1.70;;
16813;SDS011;8524;57.650;11.926;2022-08-01T12:44:28;4.13;;;1.63;;
16813;SDS011;8524;57.650;11.926;2022-08-01T12:46:57;3.42;;;1.70;;
16813;SDS011;8524;57.650;11.926;2022-08-01T12:49:24;2.73;;;1.40;;
16813;SDS011;8524;57.650;11.926;2022-08-01T12:51:54;4.43;;;1.80;;
16813;SDS011;8524;57.650;11.926;2022-08-01T12:54:21;2.27;;;1.70;;
16813;SDS011;8524;57.650;11.926;2022-08-01T12:56:51;2.57;;;1.53;;
16813;SDS011;8524;57.650;11.926;2022-08-01T12:59:19;2.07;;;1.27;;
16813;SDS011;8524;57.650;11.926;2022-08-01T13:01:48;3.27;;;1.30;;
16813;SDS011;8524;57.650;11.926;2022-08-01T13:04:15;2.63;;;1.40;;
16813;SDS011;8524;57.650;11.926;2022-08-01T13:06:42;3.37;;;1.40;;
16813;SDS011;8524;57.650;11.926;2022-08-01T13:09:09;4.07;;;1.50;;
16813;SDS011;8524;57.650;11.926;2022-08-01T13:11:38;3.87;;;1.70;;
16813;SDS011;8524;57.650;11.926;2022-08-01T13:14:07;2.97;;;1.50;;
16813;SDS011;8524;57.650;11.926;2022-08-01T13:16:44;3.63;;;1.60;;
16813;SDS011;8524;57.650;11.926;2022-08-01T13:19:13;4.03;;;1.57;;
16813;SDS011;8524;57.650;11.926;2022-08-01T13:21:45;3.33;;;1.40;;
16813;SDS011;8524;57.650;11.926;2022-08-01T13:24:24;3.77;;;1.50;;
16813;SDS011;8524;57.650;11.926;2022-08-01T13:26:52;2.33;;;1.23;;
16813;SDS011;8524;57.650;11.926;2022-08-01T13:29:30;3.47;;;1.40;;
16813;SDS011;8524;57.650;11.926;2022-08-01T13:31:58;2.10;;;1.40;;
16813;SDS011;8524;57.650;11.926;2022-08-01T13:34:29;5.17;;;1.70;;
16813;SDS011;8524;57.650;11.926;2022-08-01T13:36:57;2.60;;;1.60;;
16813;SDS011;8524;57.650;11.926;2022-08-01T13:39:23;2.80;;;1.40;;
16813;SDS011;8524;57.650;11.926;2022-08-01T13:42:16;2.50;;;1.50;;
16813;SDS011;8524;57.650;11.926;2022-08-01T13:44:45;5.00;;;1.80;;
16813;SDS011;8524;57.650;11.926;2022-08-01T13:47:12;2.90;;;1.30;;
16813;SDS011;8524;57.650;11.926;2022-08-01T13:49:39;4.77;;;1.50;;
16813;SDS011;8524;57.650;11.926;2022-08-01T13:52:06;3.20;;;1.70;;
16813;SDS011;8524;57.650;11.926;2022-08-01T13:54:33;3.90;;;1.70;;
16813;SDS011;8524;57.650;11.926;2022-08-01T13:57:01;2.43;;;1.30;;
16813;SDS011;8524;57.650;11.926;2022-08-01T13:59:28;2.73;;;1.50;;
16813;SDS011;8524;57.650;11.926;2022-08-01T14:01:56;2.50;;;1.40;;
16813;SDS011;8524;57.650;11.926;2022-08-01T14:04:23;3.37;;;1.50;;
16813;SDS011;8524;57.650;11.926;2022-08-01T14:06:50;4.43;;;1.80;;
16813;SDS011;8524;57.650;11.926;2022-08-01T14:09:18;2.93;;;1.30;;
16813;SDS011;8524;57.650;11.926;2022-08-01T14:11:47;3.30;;;1.60;;
16813;SDS011;8524;57.650;11.926;2022-08-01T14:14:14;2.97;;;1.40;;
16813;SDS011;8524;57.650;11.926;2022-08-01T14:16:41;3.47;;;1.57;;
16813;SDS011;8524;57.650;11.926;2022-08-01T14:19:11;2.27;;;1.50;;
16813;SDS011;8524;57.650;11.926;2022-08-01T14:21:38;4.03;;;1.70;;
16813;SDS011;8524;57.650;11.926;2022-08-01T14:24:05;3.63;;;1.40;;
16813;SDS011;8524;57.650;11.926;2022-08-01T14:26:32;2.83;;;1.60;;
16813;SDS011;8524;57.650;11.926;2022-08-01T14:28:59;2.63;;;1.17;;
16813;SDS011;8524;57.650;11.926;2022-08-01T14:31:26;2.67;;;1.47;;
16813;SDS011;8524;57.650;11.926;2022-08-01T14:33:54;2.63;;;1.47;;
16813;SDS011;8524;57.650;11.926;2022-08-01T14:36:22;3.77;;;1.43;;
16813;SDS011;8524;57.650;11.926;2022-08-01T14:38:49;2.33;;;1.30;;
16813;SDS011;8524;57.650;11.926;2022-08-01T14:41:16;3.07;;;1.60;;
16813;SDS011;8524;57.650;11.926;2022-08-01T14:43:43;2.77;;;1.37;;
16813;SDS011;8524;57.650;11.926;2022-08-01T14:46:10;2.87;;;1.50;;
16813;SDS011;8524;57.650;11.926;2022-08-01T14:48:38;2.33;;;1.40;;
16813;SDS011;8524;57.650;11.926;2022-08-01T14:51:05;5.57;;;1.60;;
16813;SDS011;8524;57.650;11.926;2022-08-01T14:53:33;3.47;;;1.37;;
16813;SDS011;8524;57.650;11.926;2022-08-01T14:56:01;3.10;;;1.43;;
16813;SDS011;8524;57.650;11.926;2022-08-01T14:58:29;3.47;;;1.60;;
16813;SDS011;8524;57.650;11.926;2022-08-01T15:00:56;2.83;;;1.40;;
16813;SDS011;8524;57.650;11.926;2022-08-01T15:03:23;3.90;;;1.67;;
16813;SDS011;8524;57.650;11.926;2022-08-01T15:05:50;6.00;;;1.97;;
16813;SDS011;8524;57.650;11.926;2022-08-01T15:08:17;4.00;;;1.50;;
16813;SDS011;8524;57.650;11.926;2022-08-01T15:10:45;3.37;;;1.50;;